Tiempo atmosférico en la estación meteorológica de Castello d?Empuries, Girona (4 m.)

Fecha
DESCASC
Temp. máxima en grados centígrados (hora)
DESCASC
Temp. mínima en grados centígrados (hora)
DESCASC
Temp. media en grados centígrados
DESCASC
Racha de viento máxima en m/sg (hora)
DESCASC
Velocidad máxima media en intervalos de 10 minutos(hora)
DESCASC
Precipitaciones diarias en mm
DESCASC
Precipitaciones de 00:00 a 06:00 en mm
DESCASC
Precipitaciones de 06:00 a 12:00 en mm
DESCASC
Precipitaciones de 12:00 a 18:00 en mm
DESCASC
Precipitaciones de 18:00 a 24:00 en mm
DESCASC

Gráficas

Temp. máximas Temp. mínimas Temp. medias Precipitaciones Rachas de viento máximas Velocidades máximas media en intervalos de 10 minutos

Datos horarios

Fecha y hora oficial Temperatura (ºC) Velocidad del viento (km/h) Dirección del viento Racha (km/h) Dirección de racha Precipitación (mm) Presión (hPa) Tendencia (hPa) Humedad (%)
2017-08-17 23:00:00 22.7 0 Calma 4 Noroeste 0 -- -- 84
2017-08-17 22:00:00 24.2 0 Calma 6 Nordeste 0 -- -- 79
2017-08-17 21:00:00 25.5 0 Calma 8 Este 0 -- -- 74
2017-08-17 20:00:00 27.2 4 Este 14 Sudeste 0 -- -- 67
2017-08-17 19:00:00 29.1 8 Sudeste 20 Sudeste 0 -- -- 58
2017-08-17 18:00:00 30 12 Sudeste 22 Sudeste 0 -- -- 57
2017-08-17 17:00:00 31.4 10 Sudeste 21 Sudeste 0 -- -- 53
2017-08-17 16:00:00 32.5 8 Sudeste 22 Este 0 -- -- 53
2017-08-17 15:00:00 32.6 10 Sudeste 23 Sudeste 0 -- -- 53
2017-08-17 14:00:00 31.6 8 Este 17 Este 0 -- -- 54
2017-08-17 13:00:00 31.1 6 Sudeste 16 Sudeste 0 -- -- 54
2017-08-17 12:00:00 30.3 8 Sudeste 13 Sudeste 0 -- -- 57
2017-08-17 11:00:00 28.4 6 Sudeste 12 Sudeste 0 -- -- 67
2017-08-17 10:00:00 25.5 3 Sudeste 5 Oeste 0 -- -- 76
2017-08-17 09:00:00 22.2 3 Oeste 8 Oeste 0 -- -- 86
2017-08-17 08:00:00 19 0 Calma -- -- 0 -- -- 99
2017-08-17 07:00:00 18.3 0 Calma 4 Este 0 -- -- 99
2017-08-17 06:00:00 18.4 3 Este 8 Sudoeste 0 -- -- 97
2017-08-17 05:00:00 19 6 Sudoeste 9 Sudoeste 0 -- -- 98
2017-08-17 04:00:00 18.7 0 Calma 4 Oeste 0 -- -- 97
2017-08-17 03:00:00 19 0 Calma 4 Norte 0 -- -- 95
2017-08-17 02:00:00 19.4 0 Calma 2 Norte 0 -- -- 96
2017-08-17 01:00:00 19.7 0 Calma 5 Sudoeste 0 -- -- 94
2017-08-17 00:00:00 20.7 3 Sudoeste 5 Sudoeste 0 -- -- 92
2017-08-16 23:00:00 21.1 0 Calma 4 Norte 0 -- -- 92
2017-08-16 22:00:00 22 3 Norte 5 Norte 0 -- -- 87
2017-08-16 21:00:00 23.5 0 Calma 9 Sudeste 0 -- -- 82
2017-08-16 20:00:00 25.5 6 Sudeste 15 Sudeste 0 -- -- 77
2017-08-16 19:00:00 26.4 10 Sudeste 23 Sudeste 0 -- -- 76
2017-08-16 18:00:00 27 11 Sudeste 24 Sudeste 0 -- -- 73
2017-08-16 17:00:00 27.5 14 Sudeste 24 Sudeste 0 -- -- 70
2017-08-16 16:00:00 27.9 12 Sudeste 26 Sudeste 0 -- -- 72
2017-08-16 15:00:00 26.8 13 Sudeste 23 Este 0 -- -- 74
2017-08-16 14:00:00 27.4 13 Sudeste 25 Sudeste 0 -- -- 74
2017-08-16 13:00:00 27 12 Sudeste 22 Sudeste 0 -- -- 72
2017-08-16 12:00:00 27.6 10 Sudeste 17 Este 0 -- -- 70
2017-08-16 11:00:00 25.3 3 Nordeste 10 Sudoeste 0 -- -- 77
2017-08-16 10:00:00 22.5 4 Oeste 9 Noroeste 0 -- -- 93
2017-08-16 09:00:00 21.1 4 Noroeste 7 Noroeste 0 -- -- 99
2017-08-16 08:00:00 19.7 0 Calma 5 Oeste 0 -- -- 100
2017-08-16 07:00:00 19.1 3 Noroeste 5 Noroeste 0 -- -- 100
2017-08-16 06:00:00 19.2 0 Calma 5 Noroeste 0 -- -- 99
2017-08-16 05:00:00 19.8 3 Oeste 8 Sudoeste 0 -- -- 99
2017-08-16 04:00:00 20.1 3 Sur 8 Sur 0 -- -- 98
2017-08-16 03:00:00 20.7 4 Sudoeste 8 Sudoeste 0 -- -- 97
2017-08-16 02:00:00 21.2 3 Norte 5 Nordeste 0 -- -- 97
2017-08-16 01:00:00 21.3 3 Nordeste 6 Este 0 -- -- 96
2017-08-16 00:00:00 21.9 4 Noroeste 8 Norte 0 -- -- 94
2017-08-15 23:00:00 22.3 5 Nordeste 12 Sudeste 0 -- -- 92
2017-08-15 22:00:00 22.4 3 Sudeste 20 Este 0 -- -- 91
2017-08-15 21:00:00 22.9 6 Este 14 Este 0 -- -- 93
2017-08-15 20:00:00 23.3 7 Este 18 Este 0 -- -- 92
2017-08-15 19:00:00 24.5 9 Este 26 Este 0 -- -- 88
2017-08-15 18:00:00 24.8 13 Este 29 Sudeste 0 -- -- 88
2017-08-15 17:00:00 26.3 13 Este 34 Sudeste 0 -- -- 82
2017-08-15 16:00:00 28.3 16 Sudeste 33 Sudeste 0 -- -- 74
2017-08-15 15:00:00 27.7 16 Sudeste 36 Este 0 -- -- 75
2017-08-15 14:00:00 27.5 10 Sudeste 26 Este 0 -- -- 77
2017-08-15 13:00:00 27 9 Este 24 Este 0 -- -- 76
2017-08-15 12:00:00 26.9 9 Sudeste 20 Sudeste 0 -- -- 78
2017-08-15 11:00:00 24.8 7 Sudeste 15 Este 0 -- -- 85
2017-08-15 10:00:00 23.2 0 Calma 6 Oeste 0 -- -- 89
2017-08-15 09:00:00 20.3 4 Oeste 8 Oeste 0 -- -- 100
2017-08-15 08:00:00 17.7 0 Calma 6 Oeste 0 -- -- 100
2017-08-15 07:00:00 17.4 3 Oeste 9 Noroeste 0 -- -- 100
2017-08-15 06:00:00 17.4 4 Oeste 8 Noroeste 0 -- -- 99
2017-08-15 05:00:00 18 4 Noroeste 6 Oeste 0 -- -- 99
2017-08-15 04:00:00 18.1 0 Calma 5 Oeste 0 -- -- 96
2017-08-15 03:00:00 18.8 0 Calma 5 Este 0 -- -- 98
2017-08-15 02:00:00 19.3 3 Sudeste 6 Sudeste 0 -- -- 97
2017-08-15 01:00:00 20.2 0 Calma 8 Este 0 -- -- 96
2017-08-15 00:00:00 20.7 3 Sudeste 8 Sudeste 0 -- -- 95
2017-08-14 23:00:00 21.5 4 Sudeste 14 Sudeste 0 -- -- 89
2017-08-14 22:00:00 22.8 7 Sudeste 18 Sudeste 0 -- -- 84
2017-08-14 21:00:00 24 13 Sudeste 26 Sudeste 0 -- -- 78
2017-08-14 20:00:00 26 16 Sudeste 28 Sudeste 0 -- -- 72
2017-08-14 19:00:00 27.4 16 Sudeste 35 Sudeste 0 -- -- 70
2017-08-14 18:00:00 29 17 Sudeste 39 Sudeste 0 -- -- 64
2017-08-14 17:00:00 29.1 24 Sudeste 39 Sudeste 0 -- -- 68
2017-08-14 16:00:00 31.1 19 Sudeste 36 Sudeste 0 -- -- 57
2017-08-14 15:00:00 31 19 Sudeste 32 Sudeste 0 -- -- 56
2017-08-14 14:00:00 29.4 14 Sudeste 28 Este 0 -- -- 71
2017-08-14 13:00:00 26.5 15 Este 26 Este 0 -- -- 77
2017-08-14 12:00:00 26.4 10 Este 23 Este 0 -- -- 74
2017-08-14 11:00:00 27 9 Sudeste 14 Sudeste 0 -- -- 66
2017-08-14 10:00:00 24.3 0 Calma 6 Noroeste 0 -- -- 71
2017-08-14 09:00:00 21.1 5 Noroeste 9 Noroeste 0 -- -- 80
2017-08-14 08:00:00 18.1 0 Calma -- -- 0 -- -- 91
2017-08-14 07:00:00 16.7 0 Calma -- -- 0 -- -- 96
2017-08-14 06:00:00 16.8 0 Calma -- -- 0 -- -- 96
2017-08-14 05:00:00 16.9 0 Calma -- -- 0 -- -- 95
2017-08-14 04:00:00 17.5 0 Calma -- -- 0 -- -- 93
2017-08-14 03:00:00 18.4 0 Calma -- -- 0 -- -- 92
2017-08-14 02:00:00 18.8 0 Calma -- -- 0 -- -- 91
2017-08-14 01:00:00 19.6 0 Calma 5 Noroeste 0 -- -- 90
2017-08-14 00:00:00 20.4 4 Oeste 6 Sudoeste 0 -- -- 89
2017-08-13 23:00:00 21.3 4 Oeste 6 Noroeste 0 -- -- 87
2017-08-13 22:00:00 22.2 2 Nordeste 7 Nordeste 0 -- -- 87
2017-08-13 21:00:00 23.2 3 Norte 11 Sudeste 0 -- -- 83
2017-08-13 20:00:00 25 7 Sudeste 19 Este 0 -- -- 76
2017-08-13 19:00:00 25.1 8 Este 26 Este 0 -- -- 72
2017-08-13 18:00:00 25.9 12 Este 33 Este 0 -- -- 68
2017-08-13 17:00:00 26.7 12 Este 30 Este 0 -- -- 60
2017-08-13 16:00:00 26.8 11 Este 27 Sudeste 0 -- -- 57
2017-08-13 15:00:00 27.4 13 Sudeste 27 Sudeste 0 -- -- 59
2017-08-13 14:00:00 27.8 13 Sudeste 30 Sudeste 0 -- -- 57
2017-08-13 13:00:00 28.2 14 Sudeste 24 Este 0 -- -- 56
2017-08-13 12:00:00 28 8 Sudeste 19 Sudeste 0 -- -- 56
2017-08-13 11:00:00 27.3 0 Calma 7 Sudeste 0 -- -- 49
2017-08-13 10:00:00 24.2 0 Calma 8 Oeste 0 -- -- 54
2017-08-13 09:00:00 20.7 4 Oeste 7 Oeste 0 -- -- 70
2017-08-13 08:00:00 16.9 4 Sudoeste 7 Sur 0 -- -- 90
2017-08-13 07:00:00 16.1 4 Oeste 8 Noroeste 0 -- -- 87
2017-08-13 06:00:00 16.5 2 Noroeste 8 Oeste 0 -- -- 90
2017-08-13 05:00:00 16.6 5 Sudoeste 8 Sudoeste 0 -- -- 93
2017-08-13 04:00:00 16.9 3 Sudoeste 7 Oeste 0 -- -- 93
2017-08-13 03:00:00 16.7 0 Calma 5 Nordeste 0 -- -- 94
2017-08-13 02:00:00 17.6 3 Nordeste 8 Oeste 0 -- -- 91
2017-08-13 01:00:00 18.3 3 Sur 8 Sudoeste 0 -- -- 92
2017-08-13 00:00:00 18.8 3 Sudoeste 5 Sudoeste 0 -- -- 91
2017-08-12 23:00:00 19.8 2 Norte 5 Norte 0 -- -- 86
2017-08-12 22:00:00 21.2 3 Nordeste 6 Nordeste 0 -- -- 82
2017-08-12 21:00:00 23.3 3 Este 8 Sudeste 0 -- -- 73
2017-08-12 20:00:00 26.3 4 Sur 15 Sur 0 -- -- 57
2017-08-12 19:00:00 27.3 10 Sur 26 Sudeste 0 -- -- 49
2017-08-12 18:00:00 27.6 13 Sudeste 27 Sudeste 0 -- -- 42
2017-08-12 17:00:00 28.7 14 Sudeste 26 Sudeste 0 -- -- 48
2017-08-12 16:00:00 28.5 10 Sudeste 23 Sudeste 0 -- -- 43
2017-08-12 15:00:00 27.4 8 Este 20 Este 0 -- -- 41
2017-08-12 14:00:00 27.4 9 Este 18 Sudeste 0 -- -- 42
2017-08-12 13:00:00 27.7 9 Sudeste 19 Este 0 -- -- 42
2017-08-12 12:00:00 25.7 5 Oeste 17 Oeste 0 -- -- 43
2017-08-12 11:00:00 24.4 8 Noroeste 19 Nordeste 0 -- -- 44
2017-08-12 10:00:00 22.8 11 Norte 19 Norte 0 -- -- 46
2017-08-12 09:00:00 21.3 8 Norte 18 Norte 0 -- -- 49
2017-08-12 08:00:00 19.7 6 Norte 13 Nordeste 0 -- -- 54
2017-08-12 07:00:00 18.6 9 Norte 22 Norte 0 -- -- 57
2017-08-12 06:00:00 19.3 10 Noroeste 21 Oeste 0 -- -- 58
2017-08-12 05:00:00 20.1 12 Noroeste 27 Noroeste 0 -- -- 54
2017-08-12 04:00:00 19 8 Noroeste 14 Noroeste 0 -- -- 59
2017-08-12 03:00:00 19.4 4 Noroeste 15 Noroeste 0 -- -- 57
2017-08-12 02:00:00 19.7 8 Noroeste 15 Noroeste 0 -- -- 57
2017-08-12 01:00:00 18.7 7 Norte 19 Norte 0 -- -- 61
2017-08-12 00:00:00 20.3 8 Noroeste 21 Oeste 0 -- -- 52
2017-08-11 23:00:00 20 8 Noroeste 21 Noroeste 0 -- -- 62
2017-08-11 22:00:00 20.9 4 Noroeste 22 Oeste 0 -- -- 63
2017-08-11 21:00:00 22.8 9 Noroeste 22 Noroeste 0 -- -- 46
2017-08-11 20:00:00 23.1 10 Norte 30 Norte 0 -- -- 44
2017-08-11 19:00:00 23.5 9 Norte 28 Noroeste 0 -- -- 43
2017-08-11 18:00:00 24.3 13 Noroeste 31 Noroeste 0 -- -- 40
2017-08-11 17:00:00 25.8 11 Noroeste 32 Norte 0 -- -- 36
2017-08-11 16:00:00 25.5 16 Norte 33 Norte 0 -- -- 37
2017-08-11 15:00:00 26.1 15 Noroeste 31 Norte 0 -- -- 35
2017-08-11 14:00:00 25.8 12 Noroeste 34 Noroeste 0 -- -- 37
2017-08-11 13:00:00 26.1 11 Noroeste 27 Noroeste 0 -- -- 37
2017-08-11 12:00:00 24.4 9 Noroeste 29 Noroeste 0 -- -- 39
2017-08-11 11:00:00 22.4 16 Norte 30 Norte 0 -- -- 45
2017-08-11 10:00:00 21.9 15 Norte 27 Norte 0 -- -- 45
2017-08-11 09:00:00 19.9 8 Noroeste 22 Noroeste 0 -- -- 50
2017-08-11 08:00:00 18.2 9 Norte 22 Norte 0 -- -- 54
2017-08-11 07:00:00 18.2 11 Noroeste 25 Noroeste 0 -- -- 54
2017-08-11 06:00:00 17.6 11 Noroeste 26 Noroeste 0 -- -- 58
2017-08-11 05:00:00 18.1 10 Noroeste 31 Noroeste 0 -- -- 57
2017-08-11 04:00:00 18.6 15 Noroeste 30 Norte 0 -- -- 55
2017-08-11 03:00:00 18.5 11 Norte 26 Noroeste 0 -- -- 58
2017-08-11 02:00:00 19 11 Noroeste 28 Noroeste 0 -- -- 57
2017-08-11 01:00:00 17.5 3 Noroeste 7 Noroeste 0 -- -- 93
2017-08-11 00:00:00 17.4 3 Noroeste 12 Noroeste 0 -- -- 93
2017-08-10 23:00:00 17.5 0 Calma 10 Sudoeste 0.4 -- -- 93
2017-08-10 22:00:00 19 6 Sudoeste 15 Oeste 0 -- -- 84
2017-08-10 21:00:00 20.5 0 Calma 6 Sudoeste 0 -- -- 75
2017-08-10 20:00:00 22.1 0 Calma 11 Sur 0 -- -- 64
2017-08-10 19:00:00 22.6 6 Sudoeste 26 Sur 0 -- -- 65
2017-08-10 18:00:00 24 15 Sur 30 Sur 0 -- -- 61
2017-08-10 17:00:00 23.4 10 Sur 32 Sudeste 0 -- -- 57
2017-08-10 16:00:00 24.2 22 Sudeste 33 Sudeste 0 -- -- 54
2017-08-10 15:00:00 26.6 14 Sudeste 28 Sudeste 0 -- -- 46
2017-08-10 14:00:00 27.1 10 Sudoeste 20 Sudeste 0 -- -- 40
2017-08-10 13:00:00 26.1 5 Oeste 23 Noroeste 0 -- -- 37
2017-08-10 12:00:00 24.8 9 Oeste 28 Oeste 0 -- -- 38
2017-08-10 11:00:00 22.6 12 Noroeste 23 Oeste 0 -- -- 43
2017-08-10 10:00:00 19.4 6 Noroeste 14 Oeste 0 -- -- 53
2017-08-10 09:00:00 17.5 5 Oeste 16 Noroeste 0 -- -- 59
2017-08-10 08:00:00 18 8 Noroeste 38 Norte 0 -- -- 52
2017-08-10 07:00:00 16.9 7 Norte 19 Noroeste 0 -- -- 55
2017-08-10 06:00:00 16.8 3 Sur 18 Norte 0 -- -- 63
2017-08-10 05:00:00 16.9 2 Norte 16 Norte 0 -- -- 61
2017-08-10 04:00:00 17.8 8 Noroeste 24 Norte 0 -- -- 55
2017-08-10 03:00:00 18.2 14 Norte 38 Noroeste 0 -- -- 58
2017-08-10 02:00:00 17.8 11 Norte 26 Noroeste 0 -- -- 60
2017-08-10 01:00:00 16.8 9 Norte 35 Noroeste 0.6 -- -- 70
2017-08-10 00:00:00 17.6 17 Noroeste 44 Norte 0.2 -- -- 66
2017-08-09 23:00:00 19.2 21 Noroeste 48 Norte 0 -- -- 56
2017-08-09 22:00:00 17.6 20 Noroeste 44 Noroeste 0.4 -- -- 65
2017-08-09 21:00:00 19.8 21 Noroeste 45 Norte 0 -- -- 55
2017-08-09 20:00:00 20.6 26 Noroeste 49 Noroeste 0 -- -- 50
2017-08-09 19:00:00 22.3 20 Noroeste 46 Noroeste 0 -- -- 47
2017-08-09 18:00:00 23.1 20 Noroeste 40 Noroeste 0 -- -- 48
2017-08-09 17:00:00 26 18 Noroeste 33 Noroeste 0 -- -- 43
2017-08-09 16:00:00 26 12 Nordeste 33 Este 0 -- -- 41
2017-08-09 15:00:00 27 15 Nordeste 36 Este 0 -- -- 41
2017-08-09 14:00:00 26.7 12 Nordeste 26 Este 0 -- -- 43
2017-08-09 13:00:00 26.3 12 Este 27 Este 0 -- -- 45
2017-08-09 12:00:00 25.9 11 Este 26 Este 0 -- -- 46
2017-08-09 11:00:00 25 8 Este 22 Nordeste 0 -- -- 47
2017-08-09 10:00:00 23.3 7 Noroeste 15 Norte 0 -- -- 48
2017-08-09 09:00:00 20.8 6 Noroeste 14 Oeste 0 -- -- 61
2017-08-09 08:00:00 17 3 Noroeste 6 Oeste 0 -- -- 77
2017-08-09 07:00:00 15.4 5 Noroeste 7 Noroeste 0 -- -- 81
2017-08-09 06:00:00 16.3 3 Oeste 6 Oeste 0 -- -- 78
2017-08-09 05:00:00 17.5 4 Noroeste 9 Noroeste 0 -- -- 73
2017-08-09 04:00:00 19 4 Noroeste 16 Noroeste 0 -- -- 64
2017-08-09 03:00:00 20.2 7 Noroeste 19 Noroeste 0 -- -- 60
2017-08-09 02:00:00 20.9 11 Noroeste 20 Noroeste 0 -- -- 58
2017-08-09 01:00:00 19.5 5 Noroeste 15 Norte 0 -- -- 61
2017-08-09 00:00:00 20.8 6 Noroeste 13 Noroeste 0 -- -- 54
2017-08-08 23:00:00 21.2 5 Noroeste 14 Norte 0 -- -- 52
2017-08-08 22:00:00 22.4 10 Norte 28 Norte 0 -- -- 47
2017-08-08 21:00:00 23 13 Norte 32 Noroeste 0 -- -- 46
2017-08-08 20:00:00 24.1 12 Norte 29 Norte 0 -- -- 44
2017-08-08 19:00:00 24.5 13 Noroeste 27 Norte 0 -- -- 45
2017-08-08 18:00:00 25.3 11 Norte 26 Norte 0 -- -- 44
2017-08-08 17:00:00 25.4 9 Noroeste 29 Norte 0 -- -- 48
2017-08-08 16:00:00 26 16 Norte 29 Noroeste 0 -- -- 50
2017-08-08 15:00:00 25.8 9 Norte 17 Norte 0 -- -- 53
2017-08-08 14:00:00 24.1 8 Norte 26 Noroeste 0 -- -- 58
2017-08-08 13:00:00 23 10 Noroeste 23 Noroeste 0 -- -- 61
2017-08-08 12:00:00 24 3 Oeste 15 Noroeste 0 -- -- 61
2017-08-08 11:00:00 23.7 8 Noroeste 20 Noroeste 0 -- -- 60
2017-08-08 10:00:00 23.3 10 Noroeste 16 Noroeste 0 -- -- 66
2017-08-08 09:00:00 22.8 4 Noroeste 14 Noroeste 0 -- -- 71
2017-08-08 08:00:00 22.7 8 Noroeste 22 Noroeste 0 -- -- 75
2017-08-08 07:00:00 23.3 5 Oeste 9 Oeste 0 -- -- 90
2017-08-08 06:00:00 23 4 Noroeste 8 Nordeste 0 -- -- 90
2017-08-08 05:00:00 22.7 5 Noroeste 11 Noroeste 0 -- -- 92
2017-08-08 04:00:00 23.4 3 Noroeste 8 Sudeste 0 -- -- 91
2017-08-08 03:00:00 24.1 0 Calma 13 Sur 0 -- -- 87
2017-08-08 02:00:00 24.8 7 Sur 19 Sur 0 -- -- 86
2017-08-08 01:00:00 25 6 Sur 15 Sur 0 -- -- 82
2017-08-08 00:00:00 25 0 Calma 15 Sur 0 -- -- 77
2017-08-07 23:00:00 26 6 Sur 16 Sur 0 -- -- 69
2017-08-07 22:00:00 27.1 8 Sur 26 Sur 0 -- -- 58
2017-08-07 21:00:00 28.6 12 Sur 37 Sudoeste 0 -- -- 52
2017-08-07 20:00:00 30.2 13 Sur 37 Sur 0 -- -- 54
2017-08-07 19:00:00 31.9 14 Sur 34 Sudeste 0 -- -- 54
2017-08-07 18:00:00 32.3 15 Sur 40 Sudeste 0 -- -- 56
2017-08-07 17:00:00 30.8 21 Sudeste 43 Este 0 -- -- 62
2017-08-07 16:00:00 29.3 17 Sudeste 40 Sudeste 0 -- -- 65
2017-08-07 15:00:00 28.9 21 Sudeste 38 Sudeste 0 -- -- 61
2017-08-07 14:00:00 28.4 15 Sudeste 35 Sudeste 0 -- -- 58
2017-08-07 13:00:00 27.6 15 Este 28 Este 0 -- -- 59
2017-08-07 12:00:00 27.6 12 Este 27 Este 0 -- -- 62
2017-08-07 11:00:00 27.6 11 Sudeste 27 Sudeste 0 -- -- 62
2017-08-07 10:00:00 27.4 13 Sudeste 23 Sudeste 0 -- -- 68
2017-08-07 09:00:00 25.4 5 Sudeste 8 Sudeste 0 -- -- 69
2017-08-07 08:00:00 21.2 0 Calma -- -- 0 -- -- 87
2017-08-07 07:00:00 20.3 0 Calma 5 Sudoeste 0 -- -- 84
2017-08-07 06:00:00 21.6 2 Sur 6 Sudoeste 0 -- -- 78
2017-08-07 05:00:00 22.4 4 Sudoeste 8 Sudoeste 0 -- -- 72
2017-08-07 04:00:00 23 0 Calma 9 Sudoeste 0 -- -- 66
2017-08-07 03:00:00 24.3 4 Oeste 8 Oeste 0 -- -- 55
2017-08-07 02:00:00 24.9 3 Oeste 9 Noroeste 0 -- -- 57
2017-08-07 01:00:00 25.8 5 Oeste 17 Noroeste 0 -- -- 50
2017-08-07 00:00:00 26.4 8 Noroeste 18 Noroeste 0 -- -- 45
2017-08-06 23:00:00 26.2 6 Noroeste 15 Noroeste 0 -- -- 45
2017-08-06 22:00:00 26.5 6 Noroeste 15 Norte 0 -- -- 44
2017-08-06 21:00:00 27.9 8 Noroeste 28 Noroeste 0 -- -- 40
2017-08-06 20:00:00 30 13 Noroeste 23 Noroeste 0 -- -- 39
2017-08-06 19:00:00 31.1 8 Este 21 Este 0 -- -- 41
2017-08-06 18:00:00 31.6 12 Este 23 Este 0 -- -- 42
2017-08-06 17:00:00 32.5 5 Oeste 27 Noroeste 0 -- -- 38
2017-08-06 16:00:00 32.3 12 Noroeste 26 Noroeste 0 -- -- 40
2017-08-06 15:00:00 31.7 11 Noroeste 30 Noroeste 0 -- -- 43
2017-08-06 14:00:00 31.1 17 Noroeste 31 Noroeste 0 -- -- 39
2017-08-06 13:00:00 29.7 10 Noroeste 22 Noroeste 0 -- -- 45
2017-08-06 12:00:00 25.2 8 Noroeste 21 Noroeste 0 -- -- 66
2017-08-06 11:00:00 26.3 5 Sur 17 Este 0 -- -- 66
2017-08-06 10:00:00 23.8 6 Norte 24 Oeste 0 -- -- 78
2017-08-06 09:00:00 23 9 Noroeste 26 Noroeste 0 -- -- 81
2017-08-06 08:00:00 23.2 6 Noroeste 18 Noroeste 0.2 -- -- 74
2017-08-06 07:00:00 23.9 9 Noroeste 19 Noroeste 0 -- -- 65
2017-08-06 06:00:00 23.9 5 Oeste 17 Noroeste 0 -- -- 63
2017-08-06 05:00:00 24.8 10 Noroeste 21 Noroeste 0 -- -- 61
2017-08-06 04:00:00 24.2 8 Oeste 17 Oeste 0 -- -- 66
2017-08-06 03:00:00 24.7 6 Noroeste 16 Noroeste 0 -- -- 68
2017-08-06 02:00:00 25.1 6 Oeste 14 Oeste 0 -- -- 69
2017-08-06 01:00:00 26.4 7 Noroeste 21 Noroeste 0 -- -- 63
2017-08-06 00:00:00 27.1 9 Noroeste 18 Noroeste 0 -- -- 60
2017-08-05 23:00:00 27.5 7 Noroeste 25 Noroeste 0 -- -- 61
2017-08-05 22:00:00 28.2 9 Noroeste 18 Noroeste 0 -- -- 59
2017-08-05 21:00:00 28.9 6 Noroeste 32 Noroeste 0 -- -- 58
2017-08-05 20:00:00 31 14 Noroeste 24 Noroeste 0 -- -- 53
2017-08-05 19:00:00 32.3 8 Sudeste 25 Sudeste 0 -- -- 58
2017-08-05 18:00:00 32.7 14 Sudeste 26 Sudeste 0 -- -- 55
2017-08-05 17:00:00 33.3 16 Sudeste 26 Sudeste 0 -- -- 53
2017-08-05 16:00:00 34.5 10 Sudeste 19 Sudeste 0 -- -- 51
2017-08-05 15:00:00 35 10 Este 20 Este 0 -- -- 48
2017-08-05 14:00:00 34.9 8 Sudeste 18 Sudeste 0 -- -- 47
2017-08-05 13:00:00 34 6 Este 14 Sudeste 0 -- -- 51
2017-08-05 12:00:00 32.8 8 Sudeste 16 Este 0 -- -- 54
2017-08-05 11:00:00 32 6 Este 13 Sudeste 0 -- -- 57
2017-08-05 10:00:00 29.8 2 Sudeste 5 Este 0 -- -- 67
2017-08-05 09:00:00 26.1 0 Calma 4 Sudoeste 0 -- -- 80
2017-08-05 08:00:00 23 0 Calma 5 Oeste 0 -- -- 93
2017-08-05 07:00:00 21.4 0 Calma 4 Nordeste 0 -- -- 95
2017-08-05 06:00:00 21.8 0 Calma 5 Nordeste 0 -- -- 92
2017-08-05 05:00:00 22.5 0 Calma 8 Sudoeste 0 -- -- 91
2017-08-05 04:00:00 23.3 3 Sudoeste 7 Sur 0 -- -- 92
2017-08-05 03:00:00 22.6 2 Sur 5 Este 0 -- -- 94
2017-08-05 02:00:00 23 0 Calma -- -- 0 -- -- 91
2017-08-05 01:00:00 23.5 0 Calma -- -- 0 -- -- 90
2017-08-05 00:00:00 23.9 0 Calma 9 Nordeste 0 -- -- 89
2017-08-04 23:00:00 24.8 4 Sur 6 Sudeste 0 -- -- 85
2017-08-04 22:00:00 26.1 3 Sur 6 Este 0 -- -- 80
2017-08-04 21:00:00 28.4 3 Nordeste 7 Nordeste 0 -- -- 71
2017-08-04 20:00:00 31.3 3 Sudeste 15 Sudeste 0 -- -- 54
2017-08-04 19:00:00 31.9 11 Sudeste 21 Sudeste 0 -- -- 51
2017-08-04 18:00:00 32.9 11 Sudeste 22 Sudeste 0 -- -- 55
2017-08-04 17:00:00 34.5 13 Sudeste 22 Sudeste 0 -- -- 51
2017-08-04 16:00:00 35.5 8 Este 21 Este 0 -- -- 46
2017-08-04 15:00:00 35.1 9 Este 19 Este 0 -- -- 45
2017-08-04 14:00:00 34.4 8 Este 19 Este 0 -- -- 48
2017-08-04 13:00:00 34 8 Este 19 Este 0 -- -- 49
2017-08-04 12:00:00 33.7 6 Sudeste 13 Sudeste 0 -- -- 52
2017-08-04 11:00:00 32.2 4 Sudeste 7 Oeste 0 -- -- 61
2017-08-04 10:00:00 28.4 2 Sudoeste 5 Sudoeste 0 -- -- 67
2017-08-04 09:00:00 25.3 3 Oeste 6 Oeste 0 -- -- 80
2017-08-04 08:00:00 21.7 0 Calma 5 Oeste 0 -- -- 100
2017-08-04 07:00:00 20.2 2 Sudoeste 7 Sudoeste 0 -- -- 98
2017-08-04 06:00:00 20.3 2 Sur 6 Sudoeste 0 -- -- 98
2017-08-04 05:00:00 21.1 4 Oeste 6 Sudoeste 0 -- -- 98
2017-08-04 04:00:00 21.3 0 Calma 6 Noroeste -- -- -- 98
2017-08-04 03:00:00 21.2 2 Noroeste 4 Sudoeste 0 -- -- 96
2017-08-04 02:00:00 21.9 3 Sudoeste 5 Sudoeste 0 -- -- 97
2017-08-04 01:00:00 22.5 2 Sudoeste 5 Sur 0 -- -- 96
2017-08-04 00:00:00 22.9 3 Sudeste 5 Sudeste 0 -- -- 95
2017-08-03 23:00:00 23.6 0 Calma 4 Oeste 0 -- -- 94
2017-08-03 22:00:00 24.5 2 Oeste 4 Sudeste 0 -- -- 90
2017-08-03 21:00:00 26.2 0 Calma 6 Sudeste 0 -- -- 84
2017-08-03 20:00:00 28.2 3 Este 9 Sudeste 0 -- -- 77
2017-08-03 19:00:00 28.9 7 Sudeste 13 Sur 0 -- -- 77
2017-08-03 18:00:00 28.8 10 Sudeste 22 Sudeste 0 -- -- 75
2017-08-03 17:00:00 29.3 12 Sudeste 28 Sudeste 0 -- -- 77
2017-08-03 16:00:00 30.6 17 Sudeste 27 Sur 0 -- -- 71
2017-08-03 15:00:00 32.3 10 Sudeste 18 Sudeste 0 -- -- 64
2017-08-03 14:00:00 31.4 11 Sudeste 28 Este 0 -- -- 67
2017-08-03 13:00:00 30.5 9 Este 26 Nordeste 0 -- -- 68
2017-08-03 12:00:00 30.1 7 Nordeste 24 Este 0 -- -- 69
2017-08-03 11:00:00 28.2 0 Calma 12 Sudeste 0 -- -- 80
2017-08-03 10:00:00 26.5 5 Sur 14 Noroeste 0 -- -- 88
2017-08-03 09:00:00 24.7 5 Noroeste 10 Noroeste 0 -- -- 93
2017-08-03 08:00:00 22.8 2 Sudoeste 11 Oeste 0 -- -- 100
2017-08-03 07:00:00 22.4 4 Noroeste 10 Oeste 0 -- -- 100
2017-08-03 06:00:00 22.7 6 Oeste 13 Oeste 0 -- -- 100
2017-08-03 05:00:00 23.1 3 Norte 11 Sur 0 -- -- 100
2017-08-03 04:00:00 23.1 6 Sudeste 13 Este 0 -- -- 100
2017-08-03 03:00:00 22.8 6 Sudeste 13 Sudeste 0 -- -- 100
2017-08-03 02:00:00 22.2 5 Sudeste 8 Sudeste 0 -- -- 99
2017-08-03 01:00:00 22.9 3 Sudoeste 6 Sudoeste 0 -- -- 98
2017-08-03 00:00:00 23.4 2 Noroeste 7 Noroeste 0 -- -- 97
2017-08-02 23:00:00 24.1 2 Sudoeste 5 Noroeste 0 -- -- 97
2017-08-02 22:00:00 24.7 0 Calma 15 Este 0 -- -- 96
2017-08-02 21:00:00 25 9 Este 17 Este 0 -- -- 94
2017-08-02 20:00:00 26.3 7 Este 20 Sudeste 0 -- -- 88
2017-08-02 19:00:00 27.5 7 Este 20 Este 0 -- -- 84
2017-08-02 18:00:00 27.8 8 Este 23 Este 0 -- -- 82
2017-08-02 17:00:00 27.9 9 Este 25 Sudeste 0 -- -- 82
2017-08-02 16:00:00 28 11 Este 24 Este 0 -- -- 81
2017-08-02 15:00:00 28.4 11 Sudeste 28 Este 0 -- -- 78
2017-08-02 14:00:00 29.3 12 Sudeste 24 Sudeste 0 -- -- 74
2017-08-02 13:00:00 29 13 Sudeste 24 Este 0 -- -- 72
2017-08-02 12:00:00 30.2 11 Sudeste 20 Sudeste 0 -- -- 67
2017-08-02 11:00:00 29 7 Sudeste 14 Este 0 -- -- 66
2017-08-02 10:00:00 26.6 3 Este 9 Oeste 0 -- -- 74
2017-08-02 09:00:00 23.1 5 Oeste 9 Sudoeste 0 -- -- 81
2017-08-02 08:00:00 20.4 4 Oeste 8 Oeste 0 -- -- 94
2017-08-02 07:00:00 19.2 0 Calma 5 Oeste 0 -- -- 99
2017-08-02 06:00:00 19.3 0 Calma 5 Sudoeste 0 -- -- 97
2017-08-02 05:00:00 20 4 Sudoeste 7 Sudoeste 0 -- -- 98
2017-08-02 04:00:00 20.4 4 Sudoeste 7 Sudoeste 0 -- -- 97
2017-08-02 03:00:00 20.7 3 Oeste 5 Sur 0 -- -- 97
2017-08-02 02:00:00 21.1 0 Calma 5 Sudoeste 0 -- -- 95
2017-08-02 01:00:00 22.2 3 Sudoeste 7 Oeste 0 -- -- 94
2017-08-02 00:00:00 23.2 3 Noroeste 16 Oeste 0 -- -- 90
2017-08-01 23:00:00 23.9 8 Noroeste 18 Nordeste 0 -- -- 91
2017-08-01 22:00:00 23.5 5 Este 15 Sudeste 0 -- -- 93
2017-08-01 21:00:00 24.5 4 Sudeste 22 Sudeste 0 -- -- 91
2017-08-01 20:00:00 25.2 3 Sur 19 Este 0 -- -- 86
2017-08-01 19:00:00 25.5 11 Sudeste 23 Sudeste 0 -- -- 87
2017-08-01 18:00:00 26.1 11 Sudeste 18 Sudeste 0 -- -- 85
2017-08-01 17:00:00 29.6 7 Sudeste 22 Sudeste 0 -- -- 71
2017-08-01 16:00:00 31.2 8 Sudeste 16 Sudeste 0 -- -- 68
2017-08-01 15:00:00 28.7 9 Este 21 Norte 0 -- -- 76
2017-08-01 14:00:00 27.5 5 Este 13 Sudeste 0 -- -- 78
2017-08-01 13:00:00 29.1 5 Este 14 Este 0 -- -- 71
2017-08-01 12:00:00 28.6 3 Sudeste 14 Este 0 -- -- 72
2017-08-01 11:00:00 27 5 Nordeste 15 Este 0 -- -- 80
2017-08-01 10:00:00 25.5 4 Norte 8 Norte 0 -- -- 86
2017-08-01 09:00:00 24.1 0 Calma 6 Oeste 0 -- -- 91
2017-08-01 08:00:00 23.3 4 Noroeste 8 Noroeste 0 -- -- 94
2017-08-01 07:00:00 22.8 3 Oeste 9 Noroeste 0 -- -- 97
2017-08-01 06:00:00 22.2 3 Oeste 5 Noroeste 0 -- -- 98
2017-08-01 05:00:00 21.8 2 Sudoeste 7 Oeste 0 -- -- 98
2017-08-01 04:00:00 22.4 4 Noroeste 8 Oeste 0 -- -- 96
2017-08-01 03:00:00 23 3 Oeste 8 Noroeste 0 -- -- 97
2017-08-01 02:00:00 22.8 6 Noroeste 10 Noroeste 0 -- -- 99
2017-08-01 01:00:00 22.3 3 Noroeste 6 Noroeste 0 -- -- 99
2017-08-01 00:00:00 22.3 0 Calma 5 Noroeste 0 -- -- 98
2017-07-31 23:00:00 22.7 0 Calma 8 Este 0 -- -- 97
2017-07-31 22:00:00 23.1 5 Este 8 Este 0 -- -- 95
2017-07-31 21:00:00 24.2 3 Este 13 Sudeste 0 -- -- 93
2017-07-31 20:00:00 25.4 5 Este 21 Sudeste 0 -- -- 89
2017-07-31 19:00:00 26.2 9 Este 25 Este 0 -- -- 84
2017-07-31 18:00:00 26.5 13 Este 28 Este 0 -- -- 82
2017-07-31 17:00:00 27.3 12 Este 28 Este 0 -- -- 80
2017-07-31 16:00:00 28.2 12 Este 31 Este 0 -- -- 75
2017-07-31 15:00:00 28.5 12 Este 25 Este 0 -- -- 74
2017-07-31 14:00:00 28.7 13 Sudeste 23 Sudeste 0 -- -- 76
2017-07-31 13:00:00 28.9 9 Sudeste 18 Sudeste 0 -- -- 73
2017-07-31 12:00:00 27.9 6 Sudeste 13 Este 0 -- -- 75
2017-07-31 11:00:00 27.3 6 Este 13 Sur 0 -- -- 79
2017-07-31 10:00:00 25.5 3 Nordeste 6 Nordeste 0 -- -- 79
2017-07-31 09:00:00 24.1 3 Noroeste 7 Oeste 0 -- -- 85
2017-07-31 08:00:00 21.3 4 Noroeste 7 Noroeste 0 -- -- 98
2017-07-31 07:00:00 20.7 3 Oeste 8 Oeste 0 -- -- 99
2017-07-31 06:00:00 21.4 0 Calma 8 Oeste 0 -- -- 97
2017-07-31 05:00:00 21.9 2 Oeste 6 Norte 0 -- -- 100
2017-07-31 04:00:00 21.6 4 Norte 7 Norte 0 -- -- 100
2017-07-31 03:00:00 21.3 5 Oeste 8 Oeste 0 -- -- 100
2017-07-31 02:00:00 21.3 3 Sudoeste 7 Oeste 0 -- -- 99
2017-07-31 01:00:00 22 4 Oeste 8 Oeste 0 -- -- 99
2017-07-31 00:00:00 22.2 4 Sur 7 Sur 0 -- -- 98
2017-07-30 23:00:00 22.5 3 Noroeste 5 Este 0 -- -- 97
2017-07-30 22:00:00 23.2 0 Calma 5 Este 0 -- -- 94
2017-07-30 21:00:00 24.6 0 Calma 8 Sudeste 0 -- -- 91
2017-07-30 20:00:00 25.7 4 Este 14 Sudeste 0 -- -- 87
2017-07-30 19:00:00 26.2 6 Sudeste 22 Este 0 -- -- 87
2017-07-30 18:00:00 26 9 Sudeste 26 Sudeste 0 -- -- 84
2017-07-30 17:00:00 27.6 11 Sudeste 28 Este 0 -- -- 78
2017-07-30 16:00:00 28.3 12 Este 29 Sudeste 0 -- -- 75
2017-07-30 15:00:00 29.4 10 Sudeste 22 Sudeste 0 -- -- 71
2017-07-30 14:00:00 28.6 10 Este 22 Este 0 -- -- 71
2017-07-30 13:00:00 28.4 9 Este 22 Este 0 -- -- 73
2017-07-30 12:00:00 28 9 Este 17 Este 0 -- -- 73
2017-07-30 11:00:00 27.7 8 Sudeste 17 Este 0 -- -- 76
2017-07-30 10:00:00 25.4 2 Este 8 Oeste 0 -- -- 82
2017-07-30 09:00:00 23.7 2 Noroeste 8 Oeste 0 -- -- 89
2017-07-30 08:00:00 21.2 0 Calma 0 Calma 0 -- -- 100
2017-07-30 07:00:00 19.7 0 Calma 0 Calma 0 -- -- 98
2017-07-30 06:00:00 20.4 0 Calma 0 Calma 0 -- -- 99
2017-07-30 05:00:00 20.5 0 Calma 4 Noroeste 0 -- -- 98
2017-07-30 04:00:00 21 2 Oeste 5 Oeste 0 -- -- 97
2017-07-30 03:00:00 21.6 3 Oeste 5 Oeste 0 -- -- 96
2017-07-30 02:00:00 22.6 3 Oeste 9 Sudeste 0 -- -- 96
2017-07-30 01:00:00 22.9 5 Este 14 Este 0 -- -- 98
2017-07-30 00:00:00 23 5 Este 9 Este 0 -- -- 97
2017-07-29 23:00:00 23.4 0 Calma 13 Este 0 -- -- 94
2017-07-29 22:00:00 24 8 Este 13 Este 0 -- -- 93
2017-07-29 21:00:00 25.2 6 Este 22 Este 0 -- -- 87
2017-07-29 20:00:00 28.1 8 Este 27 Sudeste 0 -- -- 72
2017-07-29 19:00:00 28.4 11 Este 31 Sudeste 0 -- -- 73
2017-07-29 18:00:00 29.1 17 Sudeste 33 Sudeste 0 -- -- 72
2017-07-29 17:00:00 29.1 15 Sudeste 41 Sudeste 0 -- -- 69
2017-07-29 16:00:00 29.4 20 Sudeste 43 Sudeste 0 -- -- 67
2017-07-29 15:00:00 29 22 Sudeste 42 Sudeste 0 -- -- 68
2017-07-29 14:00:00 29.4 21 Sudeste 37 Sudeste 0 -- -- 67
2017-07-29 13:00:00 29.1 14 Sudeste 28 Sudeste 0 -- -- 66
2017-07-29 12:00:00 28.8 10 Sudeste 21 Este 0 -- -- 69
2017-07-29 11:00:00 28.3 6 Este 12 Sudeste 0 -- -- 68
2017-07-29 10:00:00 26 3 Sur 8 Sur 0 -- -- 77
2017-07-29 09:00:00 23.2 4 Oeste 7 Oeste 0 -- -- 83
2017-07-29 08:00:00 20.4 0 Calma 0 Calma 0 -- -- 94
2017-07-29 07:00:00 19.1 0 Calma 0 Calma 0 -- -- 99
2017-07-29 06:00:00 19.2 0 Calma 0 Calma 0 -- -- 98
2017-07-29 05:00:00 19.7 0 Calma 2 Este 0 -- -- 98
2017-07-29 04:00:00 20.1 2 Sudoeste 6 Sudoeste 0 -- -- 96
2017-07-29 03:00:00 20.4 0 Calma 4 Nordeste 0 -- -- 95
2017-07-29 02:00:00 20.8 0 Calma 7 Sudoeste 0 -- -- 94
2017-07-29 01:00:00 21.6 4 Sudoeste 6 Sudoeste 0 -- -- 91
2017-07-29 00:00:00 21.9 0 Calma 5 Sudoeste 0 -- -- 91
2017-07-28 23:00:00 22.2 0 Calma 6 Oeste 0 -- -- 89
2017-07-28 22:00:00 23.1 0 Calma 6 Sur 0 -- -- 84
2017-07-28 21:00:00 24.8 4 Sudeste 17 Sudeste 0 -- -- 78
2017-07-28 20:00:00 26.7 10 Sudeste 20 Sudeste 0 -- -- 70
2017-07-28 19:00:00 28 9 Sudeste 21 Este 0 -- -- 66
2017-07-28 18:00:00 28.4 9 Este 24 Sudeste 0 -- -- 64
2017-07-28 17:00:00 29 10 Sudeste 25 Este 0 -- -- 62
2017-07-28 16:00:00 29.2 13 Sudeste 27 Sudeste 0 -- -- 63
2017-07-28 15:00:00 30 12 Sudeste 27 Sudeste 0 -- -- 62
2017-07-28 14:00:00 29 13 Sudeste 26 Sudeste 0 -- -- 68
2017-07-28 13:00:00 29.9 9 Sudeste 19 Sudeste 0 -- -- 66
2017-07-28 12:00:00 29.2 8 Sudeste 16 Este 0 -- -- 65
2017-07-28 11:00:00 28.3 7 Este 17 Este 0 -- -- 65
2017-07-28 10:00:00 26.7 3 Sudoeste 8 Noroeste 0 -- -- 66
2017-07-28 09:00:00 23.9 4 Oeste 8 Oeste 0 -- -- 78
2017-07-28 08:00:00 20.8 0 Calma 3 Oeste 0 -- -- 93
2017-07-28 07:00:00 18.6 3 Nordeste 6 Nordeste 0 -- -- 96
2017-07-28 06:00:00 19.3 3 Oeste 6 Oeste 0 -- -- 95
2017-07-28 05:00:00 19.8 0 Calma 0 Calma 0 -- -- 96
2017-07-28 04:00:00 20.3 0 Calma 0 Calma 0 -- -- 97
2017-07-28 03:00:00 20.6 0 Calma 5 Norte 0 -- -- 96
2017-07-28 02:00:00 21.2 4 Sudoeste 6 Sudoeste 0 -- -- 94
2017-07-28 01:00:00 22 5 Sudoeste 7 Sudoeste 0 -- -- 94
2017-07-28 00:00:00 22.6 4 Sudoeste 5 Sudoeste 0 -- -- 95
2017-07-27 23:00:00 23.3 0 Calma -- -- 0 -- -- 93
2017-07-27 22:00:00 24.4 0 Calma 5 Nordeste 0 -- -- 90
2017-07-27 21:00:00 25.4 3 Este 11 Este 0 -- -- 84
2017-07-27 20:00:00 26.6 7 Este 15 Este 0 -- -- 82
2017-07-27 19:00:00 27.1 9 Este 22 Este 0 -- -- 79
2017-07-27 18:00:00 26.7 10 Este 23 Este 0 -- -- 80
2017-07-27 17:00:00 27.3 10 Este 24 Este 0 -- -- 76
2017-07-27 16:00:00 27.5 11 Sudeste 30 Sudeste 0 -- -- 72
2017-07-27 15:00:00 28 12 Sudeste 26 Sudeste 0 -- -- 67
2017-07-27 14:00:00 27.7 11 Este 22 Este 0 -- -- 60
2017-07-27 13:00:00 27.8 8 Este 21 Este 0 -- -- 62
2017-07-27 12:00:00 27.6 8 Este 17 Sudeste 0 -- -- 59
2017-07-27 11:00:00 27.4 8 Sudeste 14 Este 0 -- -- 60
2017-07-27 10:00:00 24.6 2 Nordeste 8 Oeste 0 -- -- 64
2017-07-27 09:00:00 21.8 5 Oeste 8 Oeste 0 -- -- 74
2017-07-27 08:00:00 19 4 Oeste 7 Oeste 0 -- -- 83
2017-07-27 07:00:00 17.2 4 Oeste 7 Oeste 0 -- -- 92
2017-07-27 06:00:00 17.7 2 Oeste 6 Noroeste 0 -- -- 91
2017-07-27 05:00:00 18.4 3 Noroeste 7 Oeste 0 -- -- 87
2017-07-27 04:00:00 19 4 Sudoeste 7 Sudoeste 0 -- -- 82
2017-07-27 03:00:00 20.4 4 Sur 13 Noroeste 0 -- -- 76
2017-07-27 02:00:00 21.9 7 Noroeste 13 Noroeste 0 -- -- 66
2017-07-27 01:00:00 23.5 11 Noroeste 28 Noroeste 0 -- -- 59
2017-07-27 00:00:00 24.1 12 Noroeste 24 Noroeste 0 -- -- 56
2017-07-26 23:00:00 24.4 10 Oeste 24 Oeste 0 -- -- 54
2017-07-26 22:00:00 23.8 5 Este 22 Norte 0 -- -- 72
2017-07-26 21:00:00 25.8 3 Nordeste 31 Norte 0 -- -- 53
2017-07-26 20:00:00 28 13 Norte 26 Norte 0 -- -- 39
2017-07-26 19:00:00 29.4 8 Norte 24 Norte 0 -- -- 36
2017-07-26 18:00:00 29.2 9 Noroeste 26 Noroeste 0 -- -- 36
2017-07-26 17:00:00 29.2 5 Noroeste 31 Norte 0 -- -- 41
2017-07-26 16:00:00 29.7 12 Noroeste 29 Noroeste 0 -- -- 36
2017-07-26 15:00:00 28.7 15 Norte 29 Norte 0 -- -- 39
2017-07-26 14:00:00 27.9 15 Noroeste 28 Noroeste 0 -- -- 39
2017-07-26 13:00:00 27.3 12 Noroeste 34 Norte 0 -- -- 41
2017-07-26 12:00:00 26.1 16 Noroeste 30 Noroeste 0 -- -- 42
2017-07-26 11:00:00 24.6 15 Noroeste 36 Norte 0 -- -- 47
2017-07-26 10:00:00 22.9 18 Noroeste 34 Noroeste 0 -- -- 50
2017-07-26 09:00:00 21.2 17 Noroeste 41 Norte 0 -- -- 56
2017-07-26 08:00:00 20.9 21 Noroeste 39 Noroeste 0 -- -- 57
2017-07-26 07:00:00 19.3 14 Noroeste 38 Noroeste 0 -- -- 61
2017-07-26 06:00:00 19.5 18 Noroeste 33 Noroeste 0 -- -- 61
2017-07-26 05:00:00 18.9 11 Norte 33 Norte 0 -- -- 65
2017-07-26 04:00:00 19.9 12 Noroeste 30 Norte 0 -- -- 61
2017-07-26 03:00:00 20.6 11 Norte 36 Noroeste 0 -- -- 61
2017-07-26 02:00:00 21.8 17 Noroeste 42 Noroeste 0 -- -- 58
2017-07-26 01:00:00 22.6 18 Noroeste 37 Noroeste 0 -- -- 57
2017-07-26 00:00:00 23.1 14 Noroeste 31 Norte 0 -- -- 55
2017-07-25 23:00:00 23.4 9 Noroeste 20 Noroeste 0 -- -- 54
2017-07-25 22:00:00 24.1 8 Noroeste 20 Noroeste 0 -- -- 57
2017-07-25 21:00:00 25.3 9 Noroeste 32 Noroeste 0 -- -- 53
2017-07-25 20:00:00 26.4 14 Norte 45 Norte 0 -- -- 41
2017-07-25 19:00:00 27.5 24 Norte 51 Norte 0 -- -- 38
2017-07-25 18:00:00 27.5 25 Norte 50 Noroeste 0 -- -- 39
2017-07-25 17:00:00 28.4 25 Norte 50 Noroeste 0 -- -- 38
2017-07-25 16:00:00 27.1 27 Norte 54 Norte 0 -- -- 41
2017-07-25 15:00:00 28.1 24 Norte 48 Norte 0 -- -- 39
2017-07-25 14:00:00 28.3 20 Norte 37 Norte 0 -- -- 37
2017-07-25 13:00:00 28 18 Norte 37 Noroeste 0 -- -- 40
2017-07-25 12:00:00 27.2 19 Norte 40 Norte 0 -- -- 41
2017-07-25 11:00:00 26.4 20 Norte 39 Noroeste 0 -- -- 41
2017-07-25 10:00:00 25.1 19 Noroeste 41 Noroeste 0 -- -- 41
2017-07-25 09:00:00 23.2 13 Noroeste 36 Noroeste 0 -- -- 46
2017-07-25 08:00:00 20.9 15 Oeste 33 Noroeste 0 -- -- 53
2017-07-25 07:00:00 19.5 15 Norte 40 Noroeste 0 -- -- 57
2017-07-25 06:00:00 19.5 18 Noroeste 34 Noroeste 0 -- -- 60
2017-07-25 05:00:00 19.4 13 Norte 34 Norte 0 -- -- 64
2017-07-25 04:00:00 20.2 18 Norte 38 Norte 0 -- -- 62
2017-07-25 03:00:00 20.7 21 Norte 37 Norte 0 -- -- 62
2017-07-25 02:00:00 21 18 Norte 39 Norte 0 -- -- 62
2017-07-25 01:00:00 21.6 17 Noroeste 53 Norte 0 -- -- 59
2017-07-25 00:00:00 22.2 24 Noroeste 51 Norte 0 -- -- 57
2017-07-24 23:00:00 22.7 24 Noroeste 47 Norte 0 -- -- 59
2017-07-24 22:00:00 23.5 26 Noroeste 44 Norte 0 -- -- 59
2017-07-24 21:00:00 24.4 21 Noroeste 41 Noroeste 0 -- -- 56
2017-07-24 20:00:00 26 8 Norte 22 Nordeste 0 -- -- 54
2017-07-24 19:00:00 27.2 12 Sudeste 23 Sudeste 0 -- -- 72
2017-07-24 18:00:00 27.8 14 Sudeste 28 Sudeste 0 -- -- 70
2017-07-24 17:00:00 28 17 Sudeste 34 Sudeste 0 -- -- 72
2017-07-24 16:00:00 28.1 17 Sudeste 33 Sudeste 0 -- -- 68
2017-07-24 15:00:00 27.9 14 Sudeste 30 Este 0 -- -- 70
2017-07-24 14:00:00 27.6 12 Sudeste 23 Este 0 -- -- 71
2017-07-24 13:00:00 27.6 9 Sudeste 20 Este 0 -- -- 74
2017-07-24 12:00:00 27.2 7 Sudeste 14 Este 0 -- -- 71
2017-07-24 11:00:00 25.4 4 Sur 12 Sudoeste 0 -- -- 68
2017-07-24 10:00:00 23.5 3 Este 8 Noroeste 0 -- -- 83
2017-07-24 09:00:00 20.8 5 Noroeste 10 Oeste 0 -- -- 90
2017-07-24 08:00:00 19.3 3 Oeste 7 Sudoeste 0.2 -- -- 100
2017-07-24 07:00:00 18 3 Noroeste 5 Noroeste 0 -- -- 100
2017-07-24 06:00:00 18.3 4 Sur 9 Sur 0 -- -- 100
2017-07-24 05:00:00 18.3 3 Sudoeste 8 Sur 0 -- -- 100
2017-07-24 04:00:00 18.6 2 Noroeste 9 Norte 0 -- -- 100
2017-07-24 03:00:00 18.6 4 Oeste 9 Oeste 0 -- -- 100
2017-07-24 02:00:00 18.4 4 Oeste 13 Noroeste 0 -- -- 97
2017-07-24 01:00:00 18.7 2 Sudoeste 12 Sur 0 -- -- 99
2017-07-24 00:00:00 19 4 Sudoeste 13 Oeste 0 -- -- 99
2017-07-23 23:00:00 19.6 6 Oeste 27 Norte 0.6 -- -- 97
2017-07-23 22:00:00 19.7 12 Norte 23 Norte 4.2 -- -- 99
2017-07-23 21:00:00 20.1 10 Noroeste 44 Noroeste 11.4 -- -- 94
2017-07-23 20:00:00 25.8 5 Sur 12 Sudeste 0 -- -- 63
2017-07-23 19:00:00 27.4 4 Sudeste 23 Este 0 -- -- 57
2017-07-23 18:00:00 28.4 8 Este 24 Este 0 -- -- 51
2017-07-23 17:00:00 28.8 11 Nordeste 28 Este 0 -- -- 50
2017-07-23 16:00:00 29.4 11 Este 23 Este 0 -- -- 51
2017-07-23 15:00:00 29.8 10 Este 22 Este 0 -- -- 52
2017-07-23 14:00:00 29.2 11 Este 20 Este 0 -- -- 53
2017-07-23 13:00:00 28.6 10 Este 25 Este 0 -- -- 55
2017-07-23 12:00:00 28.4 9 Este 19 Nordeste 0 -- -- 57
2017-07-23 11:00:00 28.1 7 Este 19 Este 0 -- -- 61
2017-07-23 10:00:00 26.9 4 Sudeste 12 Sudeste 0 -- -- 64
2017-07-23 09:00:00 24.3 2 Noroeste 6 Noroeste 0 -- -- 68
2017-07-23 08:00:00 21.2 0 Calma 4 Nordeste 0 -- -- 86
2017-07-23 07:00:00 19 0 Calma 5 Sudoeste 0 -- -- 95
2017-07-23 06:00:00 19.5 2 Noroeste 5 Noroeste 0 -- -- 94
2017-07-23 05:00:00 20.3 2 Oeste 5 Oeste 0 -- -- 95
2017-07-23 04:00:00 21 2 Oeste 4 Sudoeste 0 -- -- 92
2017-07-23 03:00:00 22.2 2 Sudoeste 4 Sur 0 -- -- 89
2017-07-23 02:00:00 22.6 2 Sur 5 Sudoeste 0 -- -- 89
2017-07-23 01:00:00 22.5 2 Noroeste 6 Noroeste 0 -- -- 92
2017-07-23 00:00:00 22.6 3 Oeste 4 Oeste 0 -- -- 91
2017-07-22 23:00:00 23.3 2 Sudeste 6 Oeste 0 -- -- 88
2017-07-22 22:00:00 24.6 3 Este 10 Este 0 -- -- 84
2017-07-22 21:00:00 26.2 6 Este 18 Nordeste 0 -- -- 77
2017-07-22 20:00:00 27.9 9 Este 21 Este 0 -- -- 74
2017-07-22 19:00:00 28.9 11 Este 21 Nordeste 0 -- -- 71
2017-07-22 18:00:00 28.5 11 Este 29 Este 0 -- -- 73
2017-07-22 17:00:00 29.8 15 Sudeste 35 Este 0 -- -- 72
2017-07-22 16:00:00 29.5 18 Sudeste 33 Sudeste 0 -- -- 72
2017-07-22 15:00:00 28.4 14 Sudeste 30 Sudeste 0 -- -- 72
2017-07-22 14:00:00 28.2 11 Sudeste 28 Sudeste 0 -- -- 67
2017-07-22 13:00:00 28.5 13 Sudeste 26 Este 0 -- -- 70
2017-07-22 12:00:00 28.5 12 Sudeste 23 Sudeste 0 -- -- 68
2017-07-22 11:00:00 27.4 6 Sudeste 11 Sudeste 0 -- -- 68
2017-07-22 10:00:00 25 3 Este 7 Sudeste 0 -- -- 80
2017-07-22 09:00:00 22.8 3 Oeste 6 Oeste 0 -- -- 83
2017-07-22 08:00:00 19.7 0 Calma 5 Sudoeste 0 -- -- 96
2017-07-22 07:00:00 17.8 2 Oeste 6 Oeste 0 -- -- 99
2017-07-22 06:00:00 17.9 3 Oeste 6 Oeste 0 -- -- 98
2017-07-22 05:00:00 18.4 2 Oeste 6 Sudoeste 0 -- -- 98
2017-07-22 04:00:00 18.8 4 Oeste 6 Oeste 0 -- -- 97
2017-07-22 03:00:00 19.3 3 Oeste 6 Sudoeste 0 -- -- 97
2017-07-22 02:00:00 19.7 0 Calma 5 Noroeste 0 -- -- 95
2017-07-22 01:00:00 20.3 3 Oeste 6 Norte 0 -- -- 93
2017-07-22 00:00:00 20.8 3 Noroeste 5 Noroeste 0 -- -- 92
2017-07-21 23:00:00 21.5 2 Noroeste 6 Noroeste 0 -- -- 92
2017-07-21 22:00:00 22.5 0 Calma 8 Este 0 -- -- 91
2017-07-21 21:00:00 23.8 4 Este 13 Este 0 -- -- 83
2017-07-21 20:00:00 25.8 8 Sudeste 18 Sudeste 0 -- -- 74
2017-07-21 19:00:00 26.1 7 Este 17 Sudeste 0 -- -- 74
2017-07-21 18:00:00 26.8 9 Sudeste 18 Sudeste 0 -- -- 68
2017-07-21 17:00:00 26.6 7 Sudeste 20 Sudeste 0 -- -- 70
2017-07-21 16:00:00 25.5 7 Sudeste 14 Sudeste 0 -- -- 76
2017-07-21 15:00:00 24.8 7 Sudeste 13 Este 0 -- -- 76
2017-07-21 14:00:00 23.4 3 Sur 17 Nordeste 0.2 -- -- 84
2017-07-21 13:00:00 24.5 6 Nordeste 13 Este 0 -- -- 75
2017-07-21 12:00:00 27 3 Sudeste 14 Este 0 -- -- 62
2017-07-21 11:00:00 26.5 9 Este 18 Este 0 -- -- 64
2017-07-21 10:00:00 27 4 Sudeste 7 Sudeste 0 -- -- 62
2017-07-21 09:00:00 23.5 3 Sudoeste 6 Sudoeste 0 -- -- 76
2017-07-21 08:00:00 19 3 Sudoeste 8 Sudoeste 0 -- -- 91
2017-07-21 07:00:00 18.3 4 Oeste 10 Oeste 0 -- -- 91
2017-07-21 06:00:00 17.8 3 Sudoeste 6 Sudoeste 0 -- -- 94
2017-07-21 05:00:00 18 2 Sudoeste 7 Sur 0 -- -- 94
2017-07-21 04:00:00 18.4 2 Sudoeste 5 Sudeste 0 -- -- 94
2017-07-21 03:00:00 18.9 0 Calma 6 Sudeste 0 -- -- 91
2017-07-21 02:00:00 19.8 2 Noroeste 8 Oeste 0 -- -- 85
2017-07-21 01:00:00 20.2 4 Noroeste 9 Noroeste 0 -- -- 81
2017-07-21 00:00:00 20.4 4 Oeste 6 Noroeste 0 -- -- 82
2017-07-20 23:00:00 20.9 0 Calma 7 Noroeste 0 -- -- 84
2017-07-20 22:00:00 22.7 3 Noroeste 8 Noroeste 0 -- -- 77
2017-07-20 21:00:00 24.8 2 Noroeste 13 Norte 0 -- -- 71
2017-07-20 20:00:00 26 7 Norte 26 Norte 0 -- -- 63
2017-07-20 19:00:00 27.6 12 Norte 27 Nordeste 0 -- -- 49
2017-07-20 18:00:00 29.1 10 Nordeste 27 Nordeste 0 -- -- 46
2017-07-20 17:00:00 28.9 13 Nordeste 27 Nordeste 0 -- -- 53
2017-07-20 16:00:00 28.4 12 Nordeste 30 Este 0 -- -- 55
2017-07-20 15:00:00 27.8 11 Este 24 Este 0 -- -- 55
2017-07-20 14:00:00 28.5 13 Nordeste 25 Nordeste 0 -- -- 58
2017-07-20 13:00:00 25.6 11 Nordeste 25 Este 0 -- -- 74
2017-07-20 12:00:00 25.3 9 Nordeste 21 Nordeste 0 -- -- 71
2017-07-20 11:00:00 26.1 10 Nordeste 18 Nordeste 0 -- -- 74
2017-07-20 10:00:00 24.3 6 Nordeste 17 Norte 0 -- -- 81
2017-07-20 09:00:00 23.4 7 Norte 18 Norte 0 -- -- 84
2017-07-20 08:00:00 23.6 10 Norte 26 Norte 0 -- -- 82
2017-07-20 07:00:00 23.4 12 Norte 29 Norte 0 -- -- 79
2017-07-20 06:00:00 23 13 Norte 24 Norte 0 -- -- 77
2017-07-20 05:00:00 22.7 4 Noroeste 23 Noroeste 0 -- -- 83
2017-07-20 04:00:00 22.3 3 Norte 5 Este 0 -- -- 96
2017-07-20 03:00:00 22.9 4 Nordeste 10 Norte 0 -- -- 96
2017-07-20 02:00:00 22.6 2 Norte 5 Noroeste 0 -- -- 96
2017-07-20 01:00:00 22.8 3 Este 6 Sudeste 0 -- -- 95
2017-07-20 00:00:00 23.3 0 Calma 9 Sudeste 0 -- -- 94
2017-07-19 23:00:00 23.1 0 Calma 7 Sudeste 0 -- -- 90
2017-07-19 22:00:00 24.1 2 Sur 21 Sur 0 -- -- 85
2017-07-19 21:00:00 25 7 Sur 32 Sudeste 0 -- -- 80
2017-07-19 20:00:00 26.1 16 Sudeste 34 Sudeste 0 -- -- 76
2017-07-19 19:00:00 28.6 15 Sudeste 31 Sudeste 0 -- -- 66
2017-07-19 18:00:00 30.3 16 Sudeste 37 Sudeste 0 -- -- 52
2017-07-19 17:00:00 30.9 19 Sudeste 35 Sudeste 0 -- -- 55
2017-07-19 16:00:00 30.8 17 Sudeste 36 Este 0 -- -- 55
2017-07-19 15:00:00 30.3 19 Sudeste 36 Sudeste 0 -- -- 70
2017-07-19 14:00:00 30.6 17 Sudeste 35 Sudeste 0 -- -- 69
2017-07-19 13:00:00 29 19 Sudeste 32 Sudeste 0 -- -- 74
2017-07-19 12:00:00 29.9 21 Sudeste 41 Sudeste 0 -- -- 74
2017-07-19 11:00:00 29.2 15 Sudeste 28 Sudeste 0 -- -- 77
2017-07-19 10:00:00 27.9 9 Sudeste 23 Sudeste 0 -- -- 76
2017-07-19 09:00:00 25.5 4 Sudeste 10 Sudeste 0 -- -- 82
2017-07-19 08:00:00 21.7 3 Sur 6 Sur 0 -- -- 94
2017-07-19 07:00:00 20.6 0 Calma 8 Oeste 0 -- -- 94
2017-07-19 06:00:00 20.7 0 Calma 5 Oeste 0 -- -- 93
2017-07-19 05:00:00 21.8 0 Calma 9 Oeste 0 -- -- 87
2017-07-19 04:00:00 23.2 5 Sudoeste 14 Sur 0 -- -- 81
2017-07-19 03:00:00 22.6 5 Sur 17 Sur 0 -- -- 85
2017-07-19 02:00:00 22.6 5 Sur 19 Sudeste 0 -- -- 85
2017-07-19 01:00:00 22.3 6 Sur 14 Sur 0 -- -- 84
2017-07-19 00:00:00 22.8 8 Sudeste 15 Sudeste 0 -- -- 89